MSC Carolina — 3ECV5 — position and weather

sailwx.info

Track history (hours):
 
Tides and Currents Weather Stations Pressure Air Temp Water Temp Dewpoint Dewpoint Depression Visibility Wind Speed Wind Dir Waves Ship Positions

MSC Carolina

Last reported at 2016-Nov-20 22:33 UTC. Time now 2016-Dec-04 12:18 UTC.
Position N 38°08' E 015°35'.
Warning: this ship's position is 13 days out of date.

Length 275 m; draft 13.8 m.

Type: Ship (hazmat cat B). MMSI: 371475000.

Date/timePositionNaut miles runAvg speedWind from/ knotsBaromVisibWave heightAir tempDewpointWater temp
2016-Nov-20 22:33N 38°08' E 015°35'1312.8
2016-Nov-20 21:33N 38°20' E 015°42'  
2016-Nov-17 06:33N 43°39' E 009°47'28 7.0
2016-Nov-17 02:33N 44°06' E 009°51'0 0.0
2016-Nov-16 23:33N 44°06' E 009°51'0 0.0
2016-Nov-16 22:33N 44°06' E 009°51'0 0.0
2016-Nov-16 20:33N 44°06' E 009°51'0 0.0
2016-Nov-16 19:34N 44°06' E 009°51'0 0.0
2016-Nov-16 18:33N 44°06' E 009°51'0 0.0
2016-Nov-16 17:33N 44°06' E 009°51'0 0.0
2016-Nov-16 16:33N 44°06' E 009°51'9 2.1
2016-Nov-16 12:22N 43°58' E 009°47'2 0.8
2016-Nov-16 09:33N 43°57' E 009°50'1 0.6
2016-Nov-16 08:33N 43°58' E 009°49'10 9.5
2016-Nov-16 07:34N 43°54' E 009°37'1313.4
2016-Nov-16 06:33N 43°48' E 009°20'2713.5
2016-Nov-16 04:33N 43°37' E 008°46'1313.1
2016-Nov-16 03:33N 43°31' E 008°30'1313.0
2016-Nov-16 02:31N 43°25' E 008°13'14811.4
2016-Nov-15 13:33N 43°25' E 004°50'0 0.0
2016-Nov-15 12:33N 43°25' E 004°50'0 0.0
2016-Nov-15 11:33N 43°25' E 004°50'0 0.0
2016-Nov-15 10:33N 43°25' E 004°50'0 0.0
2016-Nov-15 07:33N 43°25' E 004°50'0 0.0
2016-Nov-15 06:33N 43°25' E 004°50'0 0.0
2016-Nov-15 05:53N 43°25' E 004°50'0 0.0
2016-Nov-15 03:33N 43°25' E 004°50'7 6.8
2016-Nov-15 02:33N 43°22' E 004°58'2512.6
2016-Nov-15 00:34N 42°57' E 004°50'14016.7
2016-Nov-14 16:11N 41°06' E 002°57'1117.2
2016-Nov-14 15:33N 40°57' E 002°48'7518.6
2016-Nov-14 11:33N 39°58' E 001°49'55713.9
2016-Nov-12 19:33N 38°51' W 010°07'72019.5
2016-Nov-11 06:33N 49°49' W 003°20'2019.3
2016-Nov-11 05:33N 49°58' W 002°53'3617.7
2016-Nov-11 03:31N 50°03' W 001°57'1717.5
2016-Nov-11 02:33N 50°01' W 001°31'1818.4
2016-Nov-11 01:33N 49°52' W 001°06'1919.3
2016-Nov-11 00:34N 49°43' W 000°41'2019.5
2016-Nov-10 23:33N 49°32' W 000°15'1514.8
2016-Nov-10 22:33N 49°28' E 000°07'  
Track history (hours):
 
Tides and Currents Weather Stations Pressure Air Temp Water Temp Dewpoint Dewpoint Depression Visibility Wind Speed Wind Dir Waves Ship Positions

MSC Carolina

Last reported at 2016-Nov-20 22:33 UTC. Time now 2016-Dec-04 12:18 UTC.
Position N 38°08' E 015°35'.
Warning: this ship's position is 13 days out of date.

Length 275 m; draft 13.8 m.

Type: Ship (hazmat cat B). MMSI: 371475000.

Date/timePositionNaut miles runAvg speedWind from/ knotsBaromVisibWave heightAir tempDewpointWater temp
2016-Nov-20 22:33N 38°08' E 015°35'1312.8
2016-Nov-20 21:33N 38°20' E 015°42'  
2016-Nov-17 06:33N 43°39' E 009°47'28 7.0
2016-Nov-17 02:33N 44°06' E 009°51'0 0.0
2016-Nov-16 23:33N 44°06' E 009°51'0 0.0
2016-Nov-16 22:33N 44°06' E 009°51'0 0.0
2016-Nov-16 20:33N 44°06' E 009°51'0 0.0
2016-Nov-16 19:34N 44°06' E 009°51'0 0.0
2016-Nov-16 18:33N 44°06' E 009°51'0 0.0
2016-Nov-16 17:33N 44°06' E 009°51'0 0.0
2016-Nov-16 16:33N 44°06' E 009°51'9 2.1
2016-Nov-16 12:22N 43°58' E 009°47'2 0.8
2016-Nov-16 09:33N 43°57' E 009°50'1 0.6
2016-Nov-16 08:33N 43°58' E 009°49'10 9.5
2016-Nov-16 07:34N 43°54' E 009°37'1313.4
2016-Nov-16 06:33N 43°48' E 009°20'2713.5
2016-Nov-16 04:33N 43°37' E 008°46'1313.1
2016-Nov-16 03:33N 43°31' E 008°30'1313.0
2016-Nov-16 02:31N 43°25' E 008°13'14811.4
2016-Nov-15 13:33N 43°25' E 004°50'0 0.0
2016-Nov-15 12:33N 43°25' E 004°50'0 0.0
2016-Nov-15 11:33N 43°25' E 004°50'0 0.0
2016-Nov-15 10:33N 43°25' E 004°50'0 0.0
2016-Nov-15 07:33N 43°25' E 004°50'0 0.0
2016-Nov-15 06:33N 43°25' E 004°50'0 0.0
2016-Nov-15 05:53N 43°25' E 004°50'0 0.0
2016-Nov-15 03:33N 43°25' E 004°50'7 6.8
2016-Nov-15 02:33N 43°22' E 004°58'2512.6
2016-Nov-15 00:34N 42°57' E 004°50'14016.7
2016-Nov-14 16:11N 41°06' E 002°57'1117.2
2016-Nov-14 15:33N 40°57' E 002°48'7518.6
2016-Nov-14 11:33N 39°58' E 001°49'55713.9
2016-Nov-12 19:33N 38°51' W 010°07'72019.5
2016-Nov-11 06:33N 49°49' W 003°20'2019.3
2016-Nov-11 05:33N 49°58' W 002°53'3617.7
2016-Nov-11 03:31N 50°03' W 001°57'1717.5
2016-Nov-11 02:33N 50°01' W 001°31'1818.4
2016-Nov-11 01:33N 49°52' W 001°06'1919.3
2016-Nov-11 00:34N 49°43' W 000°41'2019.5
2016-Nov-10 23:33N 49°32' W 000°15'1514.8
2016-Nov-10 22:33N 49°28' E 000°07'  

Dump ship's entire track history